메인 페이지
METAR-TAF:

METAR-TAF

공항 :

Fort Riley, 캔자스, 미국

위도: 39-06N, 경도: 096-46W, 고도: 325m

현재 날씨관측

예보는 16분 전, 22:56시(UTC)에 발표되었습니다.
10kt
온도 1°C
습도 80%
기압 1022 hPa
시정: 16.1km
고도 1100ft 상공 흐림

METAR: KFRI 252256Z AUTO 01010KT 10SM OVC011 01/M02 A3019 RMK AO2 SLP231 T00091020

시각: 18:12 (23:12 UTC)

예보

예보는 10 시간 12분 전, 13:00시(UTC)에 발표되었습니다.
예보 대상 시간: 25일 13시부터 26일 19시까지 (UTC)
북동9kt
시정 10km 이상
고도 600ft 상공 흐림
전환 중
25일 14시부터 25일 15시까지 (UTC)
북북동9kt
시정 10km 이상
고도 1500ft 상공 구름 많음
전환 중
25일 19시부터 25일 20시까지 (UTC)
북북동9kt
시정: 9000m
고도 2000ft 상공 구름 많음
약한이슬비
전환 중
26일 01시부터 26일 02시까지 (UTC)
12kt
시정: 8000m
고도 900ft 상공 흐림
약한눈
전환 중
26일 11시부터 26일 12시까지 (UTC)
12kt
시정: 8000m
고도 900ft 상공 흐림
전환 중
26일 14시부터 26일 15시까지 (UTC)
북북동12kt
시정: 8000m
고도 1000ft 상공 흐림

TAF: KFRI 251300Z 2513/2619 04009KT 9999 OVC006 620303 QNH3012INS BECMG 2514/2515 03009KT 9999 BKN015 620304 QNH3016INS BECMG 2519/2520 02009KT 9000 -DZ BKN020 620305 QNH3016INS BECMG 2601/2602 01012KT 8000 -SN OVC009 620099 QNH3022INS BECMG 2611/2612 01012KT 8000 SN OVC009 620099 QNH3032INS BECMG 2614/2615 02012KT 8000 SN OVC010 620109 QNH3039INS TX04/2517Z TNM03/2613Z

4,000개 이상의 공항 관측 자료 및 예보 (METAR 및 TAF 보고).

지도상에서 검색 가능한 기상관측소가 노란 점과 빨간 점으로 표시되어 있습니다.

기상관측소 명을 보려면 표시 위로 마우스를 이동하세요.

날씨 관측과 예보를 보려면 클릭하세요.

지도 변경 : 확대하려면 엑스 표시가 있는 녹색 버튼, 축소하려면 빼기 표시가 있는 녹색 버튼, 다음 페이지의 지도를 보려면 녹색 화살표를 클릭하세요.


METAR-TAF: